createdAt,value
2023-01-12T00:00:53.424Z,0
2023-01-12T00:10:31.023Z,0
2023-01-12T00:20:08.579Z,0
2023-01-12T00:29:46.127Z,0
2023-01-12T00:39:23.266Z,0
2023-01-12T00:49:00.014Z,0
2023-01-12T00:58:37.366Z,0
2023-01-12T01:08:15.329Z,0
2023-01-12T01:17:53.325Z,0
2023-01-12T01:27:31.144Z,0
2023-01-12T01:37:08.448Z,0
2023-01-12T01:46:46.124Z,0
2023-01-12T01:56:23.712Z,0
2023-01-12T02:06:01.500Z,0
2023-01-12T02:15:39.107Z,0
2023-01-12T02:25:16.681Z,0
2023-01-12T02:34:53.994Z,0
2023-01-12T02:44:31.204Z,0
2023-01-12T02:54:08.772Z,0
2023-01-12T03:03:46.137Z,0
2023-01-12T03:13:23.364Z,0
2023-01-12T03:23:00.574Z,0
2023-01-12T03:32:38.129Z,0
2023-01-12T03:42:15.664Z,0
2023-01-12T03:51:53.057Z,0
2023-01-12T04:01:30.528Z,0
2023-01-12T04:11:07.651Z,0
2023-01-12T04:20:45.199Z,0
2023-01-12T04:30:22.200Z,0
2023-01-12T04:39:59.222Z,0
2023-01-12T04:49:36.348Z,0
2023-01-12T04:59:13.624Z,0
2023-01-12T05:08:50.828Z,0
2023-01-12T05:18:28.025Z,0
2023-01-12T05:28:05.384Z,0
2023-01-12T05:37:42.539Z,0
2023-01-12T05:47:19.928Z,0
2023-01-12T05:56:57.408Z,0
2023-01-12T06:06:34.989Z,0
2023-01-12T06:16:12.383Z,0
2023-01-12T06:25:49.945Z,0
2023-01-12T06:35:27.368Z,0
2023-01-12T06:45:04.673Z,0
2023-01-12T06:54:42.173Z,0
2023-01-12T07:04:19.566Z,0
2023-01-12T07:13:56.977Z,5.63
2023-01-12T07:23:34.384Z,11.25
2023-01-12T07:33:11.832Z,16.88
2023-01-12T07:42:49.608Z,22.5
2023-01-12T07:52:27.299Z,45
2023-01-12T08:02:04.838Z,78.75
2023-01-12T08:11:42.046Z,73.13
2023-01-12T08:21:19.579Z,106.88
2023-01-12T08:30:57.006Z,90
2023-01-12T08:40:34.421Z,78.75
2023-01-12T08:50:12.036Z,84.38
2023-01-12T08:59:50.361Z,146.25
2023-01-12T09:09:28.294Z,129.38
2023-01-12T09:19:05.553Z,123.75
2023-01-12T09:28:42.693Z,95.63
2023-01-12T09:38:20.304Z,106.88
2023-01-12T09:47:57.693Z,140.63
2023-01-12T09:57:35.388Z,191.25
2023-01-12T10:07:13.061Z,180
2023-01-12T10:16:50.158Z,129.38
2023-01-12T10:26:27.460Z,151.88
2023-01-12T10:36:04.953Z,151.88
2023-01-12T10:45:42.244Z,163.13
2023-01-12T10:55:20.275Z,202.5
2023-01-12T11:04:57.475Z,202.5
2023-01-12T11:14:35.752Z,258.75
2023-01-12T11:24:13.185Z,241.88
2023-01-12T11:33:51.142Z,213.75
2023-01-12T11:43:28.259Z,168.75
2023-01-12T11:53:05.106Z,168.75
2023-01-12T12:02:42.686Z,241.88
2023-01-12T12:12:20.529Z,219.38
2023-01-12T12:21:57.335Z,174.38
2023-01-12T12:31:34.098Z,163.13
2023-01-12T12:41:11.086Z,168.75
2023-01-12T12:50:48.466Z,174.38
2023-01-12T13:00:36.770Z,146.25
2023-01-12T13:10:09.338Z,180
2023-01-12T13:20:01.000Z,151.88
2023-01-12T13:29:30.173Z,135
2023-01-12T13:39:07.448Z,129.38
2023-01-12T13:48:44.388Z,101.25
2023-01-12T13:58:21.821Z,112.5
2023-01-12T14:07:59.123Z,90
2023-01-12T14:17:36.117Z,78.75
2023-01-12T14:27:13.185Z,61.88
2023-01-12T14:36:50.480Z,39.38
2023-01-12T14:46:27.467Z,28.13
2023-01-12T14:56:04.779Z,22.5
2023-01-12T15:05:41.698Z,16.88
2023-01-12T15:15:29.586Z,11.25
2023-01-12T15:25:02.316Z,5.63
2023-01-12T15:34:39.446Z,0
2023-01-12T15:44:16.832Z,0
2023-01-12T15:53:54.081Z,0
2023-01-12T16:03:57.583Z,0
2023-01-12T16:13:08.891Z,0
2023-01-12T16:22:46.138Z,0
2023-01-12T16:32:23.043Z,0
2023-01-12T16:41:59.998Z,0
2023-01-12T16:51:37.611Z,0
2023-01-12T17:01:15.117Z,0
2023-01-12T17:10:52.400Z,0
2023-01-12T17:20:29.969Z,0
2023-01-12T17:30:06.968Z,0
2023-01-12T17:39:44.074Z,0
2023-01-12T17:49:21.276Z,0
2023-01-12T17:58:59.003Z,0
2023-01-12T18:08:36.409Z,0
2023-01-12T18:18:13.261Z,0
2023-01-12T18:27:50.067Z,0
2023-01-12T18:37:27.357Z,0
2023-01-12T18:47:04.633Z,0
2023-01-12T18:56:41.816Z,0
2023-01-12T19:06:19.470Z,0
2023-01-12T19:15:56.949Z,0
2023-01-12T19:25:34.485Z,0
2023-01-12T19:35:12.067Z,0
2023-01-12T19:44:49.430Z,0
2023-01-12T19:54:26.561Z,0
2023-01-12T20:04:03.879Z,0
2023-01-12T20:13:40.980Z,0
2023-01-12T20:23:17.940Z,0
2023-01-12T20:32:55.171Z,0
2023-01-12T20:42:32.434Z,0
2023-01-12T20:52:09.902Z,0
2023-01-12T21:01:47.094Z,0
2023-01-12T21:11:24.150Z,0
2023-01-12T21:21:01.518Z,0
2023-01-12T21:30:39.274Z,0
2023-01-12T21:40:16.518Z,0
2023-01-12T21:49:53.959Z,0
2023-01-12T21:59:31.656Z,0
2023-01-12T22:09:09.055Z,0
2023-01-12T22:18:46.222Z,0
2023-01-12T22:28:23.457Z,0
2023-01-12T22:38:00.299Z,0
2023-01-12T22:47:47.415Z,0
2023-01-12T22:57:14.348Z,0
2023-01-12T23:06:51.765Z,0
2023-01-12T23:16:28.973Z,0
2023-01-12T23:26:06.061Z,0
2023-01-12T23:35:43.128Z,0
2023-01-12T23:45:20.249Z,0
2023-01-12T23:54:57.674Z,0
